sensor_id;sensor_type;location;lat;lon;timestamp;temperature;humidity
37410;DHT22;23275;48.914;12.566;2024-01-07T00:01:35;4.30;99.90
37410;DHT22;23275;48.914;12.566;2024-01-07T00:04:01;4.30;99.90
37410;DHT22;23275;48.914;12.566;2024-01-07T00:06:26;4.30;99.90
37410;DHT22;23275;48.914;12.566;2024-01-07T00:08:52;4.30;99.90
37410;DHT22;23275;48.914;12.566;2024-01-07T00:11:18;4.30;99.90
37410;DHT22;23275;48.914;12.566;2024-01-07T00:13:43;4.30;99.90
37410;DHT22;23275;48.914;12.566;2024-01-07T00:16:09;4.30;99.90
37410;DHT22;23275;48.914;12.566;2024-01-07T00:18:34;4.30;99.90
37410;DHT22;23275;48.914;12.566;2024-01-07T00:21:00;4.30;99.90
37410;DHT22;23275;48.914;12.566;2024-01-07T00:23:25;4.30;99.90
37410;DHT22;23275;48.914;12.566;2024-01-07T00:25:51;4.30;99.90
37410;DHT22;23275;48.914;12.566;2024-01-07T00:28:16;4.30;99.90
37410;DHT22;23275;48.914;12.566;2024-01-07T00:30:42;4.30;99.90
37410;DHT22;23275;48.914;12.566;2024-01-07T00:33:07;4.20;99.90
37410;DHT22;23275;48.914;12.566;2024-01-07T00:35:33;4.20;99.90
37410;DHT22;23275;48.914;12.566;2024-01-07T00:37:58;4.20;99.90
37410;DHT22;23275;48.914;12.566;2024-01-07T00:40:24;4.20;99.90
37410;DHT22;23275;48.914;12.566;2024-01-07T00:42:50;4.10;99.90
37410;DHT22;23275;48.914;12.566;2024-01-07T00:45:17;4.10;99.90
37410;DHT22;23275;48.914;12.566;2024-01-07T00:47:42;4.10;99.90
37410;DHT22;23275;48.914;12.566;2024-01-07T00:50:08;4.10;99.90
37410;DHT22;23275;48.914;12.566;2024-01-07T00:52:34;4.10;99.90
37410;DHT22;23275;48.914;12.566;2024-01-07T00:55:00;4.10;99.90
37410;DHT22;23275;48.914;12.566;2024-01-07T00:57:28;4.10;99.90
37410;DHT22;23275;48.914;12.566;2024-01-07T00:59:54;4.00;99.90
37410;DHT22;23275;48.914;12.566;2024-01-07T01:02:19;4.00;99.90
37410;DHT22;23275;48.914;12.566;2024-01-07T01:04:45;3.90;99.90
37410;DHT22;23275;48.914;12.566;2024-01-07T01:07:10;3.90;99.90
37410;DHT22;23275;48.914;12.566;2024-01-07T01:09:36;3.90;99.90
37410;DHT22;23275;48.914;12.566;2024-01-07T01:12:02;3.90;99.90
37410;DHT22;23275;48.914;12.566;2024-01-07T01:14:27;3.90;99.90
37410;DHT22;23275;48.914;12.566;2024-01-07T01:16:53;3.90;99.90
37410;DHT22;23275;48.914;12.566;2024-01-07T01:19:18;3.90;99.90
37410;DHT22;23275;48.914;12.566;2024-01-07T01:21:44;3.90;99.90
37410;DHT22;23275;48.914;12.566;2024-01-07T01:24:09;3.90;99.90
37410;DHT22;23275;48.914;12.566;2024-01-07T01:26:35;3.90;99.90
37410;DHT22;23275;48.914;12.566;2024-01-07T01:29:01;3.80;99.90
37410;DHT22;23275;48.914;12.566;2024-01-07T01:31:26;3.80;99.90
37410;DHT22;23275;48.914;12.566;2024-01-07T01:33:52;3.80;99.90
37410;DHT22;23275;48.914;12.566;2024-01-07T01:36:17;3.80;99.90
37410;DHT22;23275;48.914;12.566;2024-01-07T01:38:43;3.80;99.90
37410;DHT22;23275;48.914;12.566;2024-01-07T01:41:08;3.80;99.90
37410;DHT22;23275;48.914;12.566;2024-01-07T01:43:34;3.70;99.90
37410;DHT22;23275;48.914;12.566;2024-01-07T01:46:01;3.70;99.90
37410;DHT22;23275;48.914;12.566;2024-01-07T01:48:27;3.60;99.90
37410;DHT22;23275;48.914;12.566;2024-01-07T01:50:54;3.60;99.90
37410;DHT22;23275;48.914;12.566;2024-01-07T01:53:24;3.60;99.90
37410;DHT22;23275;48.914;12.566;2024-01-07T01:55:49;3.60;99.90
37410;DHT22;23275;48.914;12.566;2024-01-07T01:58:17;3.50;99.90
37410;DHT22;23275;48.914;12.566;2024-01-07T02:00:44;3.50;99.90
37410;DHT22;23275;48.914;12.566;2024-01-07T02:03:10;3.50;99.90
37410;DHT22;23275;48.914;12.566;2024-01-07T02:05:35;3.50;99.90
37410;DHT22;23275;48.914;12.566;2024-01-07T02:08:01;3.50;99.90
37410;DHT22;23275;48.914;12.566;2024-01-07T02:10:26;3.50;99.90
37410;DHT22;23275;48.914;12.566;2024-01-07T02:12:54;3.50;99.90
37410;DHT22;23275;48.914;12.566;2024-01-07T02:15:19;3.50;99.90
37410;DHT22;23275;48.914;12.566;2024-01-07T02:17:45;3.40;99.90
37410;DHT22;23275;48.914;12.566;2024-01-07T02:20:11;3.40;99.90
37410;DHT22;23275;48.914;12.566;2024-01-07T02:22:36;3.40;99.90
37410;DHT22;23275;48.914;12.566;2024-01-07T02:25:02;3.40;99.90
37410;DHT22;23275;48.914;12.566;2024-01-07T02:27:28;3.40;99.90
37410;DHT22;23275;48.914;12.566;2024-01-07T02:29:53;3.40;99.90
37410;DHT22;23275;48.914;12.566;2024-01-07T02:32:19;3.40;99.90
37410;DHT22;23275;48.914;12.566;2024-01-07T02:34:44;3.40;99.90
37410;DHT22;23275;48.914;12.566;2024-01-07T02:37:11;3.30;99.90
37410;DHT22;23275;48.914;12.566;2024-01-07T02:39:36;3.30;99.90
37410;DHT22;23275;48.914;12.566;2024-01-07T02:42:02;3.30;99.90
37410;DHT22;23275;48.914;12.566;2024-01-07T02:44:28;3.30;99.90
37410;DHT22;23275;48.914;12.566;2024-01-07T02:46:53;3.20;99.90
37410;DHT22;23275;48.914;12.566;2024-01-07T02:49:19;3.30;99.90
37410;DHT22;23275;48.914;12.566;2024-01-07T02:51:44;3.20;99.90
37410;DHT22;23275;48.914;12.566;2024-01-07T02:54:14;3.20;99.90
37410;DHT22;23275;48.914;12.566;2024-01-07T02:56:40;3.20;99.90
37410;DHT22;23275;48.914;12.566;2024-01-07T02:59:05;3.20;99.90
37410;DHT22;23275;48.914;12.566;2024-01-07T03:01:32;3.20;99.90
37410;DHT22;23275;48.914;12.566;2024-01-07T03:03:57;3.10;99.90
37410;DHT22;23275;48.914;12.566;2024-01-07T03:06:26;3.10;99.90
37410;DHT22;23275;48.914;12.566;2024-01-07T03:08:53;3.10;99.90
37410;DHT22;23275;48.914;12.566;2024-01-07T03:11:18;3.10;99.90
37410;DHT22;23275;48.914;12.566;2024-01-07T03:13:47;3.10;99.90
37410;DHT22;23275;48.914;12.566;2024-01-07T03:16:20;3.10;99.90
37410;DHT22;23275;48.914;12.566;2024-01-07T03:18:45;3.00;99.90
37410;DHT22;23275;48.914;12.566;2024-01-07T03:21:19;3.00;99.90
37410;DHT22;23275;48.914;12.566;2024-01-07T03:23:46;3.00;99.90
37410;DHT22;23275;48.914;12.566;2024-01-07T03:26:13;3.00;99.90
37410;DHT22;23275;48.914;12.566;2024-01-07T03:28:38;2.90;99.90
37410;DHT22;23275;48.914;12.566;2024-01-07T03:31:09;2.90;99.90
37410;DHT22;23275;48.914;12.566;2024-01-07T03:33:36;2.90;99.90
37410;DHT22;23275;48.914;12.566;2024-01-07T03:36:12;2.90;99.90
37410;DHT22;23275;48.914;12.566;2024-01-07T03:38:39;2.90;99.90
37410;DHT22;23275;48.914;12.566;2024-01-07T03:41:05;2.90;99.90
37410;DHT22;23275;48.914;12.566;2024-01-07T03:43:31;2.80;99.90
37410;DHT22;23275;48.914;12.566;2024-01-07T03:45:57;2.80;99.90
37410;DHT22;23275;48.914;12.566;2024-01-07T03:48:22;2.80;99.90
37410;DHT22;23275;48.914;12.566;2024-01-07T03:50:48;2.80;99.90
37410;DHT22;23275;48.914;12.566;2024-01-07T03:53:14;2.70;99.90
37410;DHT22;23275;48.914;12.566;2024-01-07T03:55:40;2.70;99.90
37410;DHT22;23275;48.914;12.566;2024-01-07T03:58:05;2.70;99.90
37410;DHT22;23275;48.914;12.566;2024-01-07T04:00:31;2.70;99.90
37410;DHT22;23275;48.914;12.566;2024-01-07T04:02:57;2.60;99.90
37410;DHT22;23275;48.914;12.566;2024-01-07T04:05:23;2.60;99.90
37410;DHT22;23275;48.914;12.566;2024-01-07T04:07:48;2.60;99.90
37410;DHT22;23275;48.914;12.566;2024-01-07T04:10:16;2.60;99.90
37410;DHT22;23275;48.914;12.566;2024-01-07T04:12:42;2.50;99.90
37410;DHT22;23275;48.914;12.566;2024-01-07T04:15:08;2.50;99.90
37410;DHT22;23275;48.914;12.566;2024-01-07T04:17:33;2.50;99.90
37410;DHT22;23275;48.914;12.566;2024-01-07T04:19:59;2.50;99.90
37410;DHT22;23275;48.914;12.566;2024-01-07T04:22:24;2.50;99.90
37410;DHT22;23275;48.914;12.566;2024-01-07T04:24:50;2.50;99.90
37410;DHT22;23275;48.914;12.566;2024-01-07T04:27:16;2.40;99.90
37410;DHT22;23275;48.914;12.566;2024-01-07T04:29:41;2.40;99.90
37410;DHT22;23275;48.914;12.566;2024-01-07T04:32:07;2.40;99.90
37410;DHT22;23275;48.914;12.566;2024-01-07T04:34:32;2.40;99.90
37410;DHT22;23275;48.914;12.566;2024-01-07T04:36:58;2.40;99.90
37410;DHT22;23275;48.914;12.566;2024-01-07T04:39:23;2.40;99.90
37410;DHT22;23275;48.914;12.566;2024-01-07T04:41:49;2.40;99.90
37410;DHT22;23275;48.914;12.566;2024-01-07T04:44:14;2.30;99.90
37410;DHT22;23275;48.914;12.566;2024-01-07T04:46:40;2.30;99.90
37410;DHT22;23275;48.914;12.566;2024-01-07T04:49:06;2.30;99.90
37410;DHT22;23275;48.914;12.566;2024-01-07T04:51:32;2.30;99.90
37410;DHT22;23275;48.914;12.566;2024-01-07T04:53:58;2.30;99.90
37410;DHT22;23275;48.914;12.566;2024-01-07T04:56:24;2.30;99.90
37410;DHT22;23275;48.914;12.566;2024-01-07T04:58:49;2.30;99.90
37410;DHT22;23275;48.914;12.566;2024-01-07T05:01:15;2.30;99.90
37410;DHT22;23275;48.914;12.566;2024-01-07T05:03:40;2.30;99.90
37410;DHT22;23275;48.914;12.566;2024-01-07T05:06:08;2.20;99.90
37410;DHT22;23275;48.914;12.566;2024-01-07T05:08:36;2.20;99.90
37410;DHT22;23275;48.914;12.566;2024-01-07T05:11:05;2.20;99.90
37410;DHT22;23275;48.914;12.566;2024-01-07T05:13:31;2.20;99.90
37410;DHT22;23275;48.914;12.566;2024-01-07T05:15:57;2.20;99.90
37410;DHT22;23275;48.914;12.566;2024-01-07T05:18:23;2.20;99.90
37410;DHT22;23275;48.914;12.566;2024-01-07T05:20:49;2.20;99.90
37410;DHT22;23275;48.914;12.566;2024-01-07T05:23:15;2.10;99.90
37410;DHT22;23275;48.914;12.566;2024-01-07T05:25:44;2.10;99.90
37410;DHT22;23275;48.914;12.566;2024-01-07T05:28:11;2.10;99.90
37410;DHT22;23275;48.914;12.566;2024-01-07T05:30:36;2.10;99.90
37410;DHT22;23275;48.914;12.566;2024-01-07T05:33:02;2.10;99.90
37410;DHT22;23275;48.914;12.566;2024-01-07T05:35:28;2.10;99.90
37410;DHT22;23275;48.914;12.566;2024-01-07T05:37:53;2.10;99.90
37410;DHT22;23275;48.914;12.566;2024-01-07T05:40:19;2.10;99.90
37410;DHT22;23275;48.914;12.566;2024-01-07T05:42:44;2.00;99.90
37410;DHT22;23275;48.914;12.566;2024-01-07T05:45:10;2.00;99.90
37410;DHT22;23275;48.914;12.566;2024-01-07T05:47:35;2.00;99.90
37410;DHT22;23275;48.914;12.566;2024-01-07T05:50:01;2.00;99.90
37410;DHT22;23275;48.914;12.566;2024-01-07T05:52:27;2.00;99.90
37410;DHT22;23275;48.914;12.566;2024-01-07T05:54:53;2.00;99.90
37410;DHT22;23275;48.914;12.566;2024-01-07T05:57:18;2.00;99.90
37410;DHT22;23275;48.914;12.566;2024-01-07T05:59:44;2.00;99.90
37410;DHT22;23275;48.914;12.566;2024-01-07T06:02:10;1.90;99.90
37410;DHT22;23275;48.914;12.566;2024-01-07T06:04:37;1.90;99.90
37410;DHT22;23275;48.914;12.566;2024-01-07T06:07:03;1.90;99.90
37410;DHT22;23275;48.914;12.566;2024-01-07T06:09:29;1.90;99.90
37410;DHT22;23275;48.914;12.566;2024-01-07T06:11:54;1.90;99.90
37410;DHT22;23275;48.914;12.566;2024-01-07T06:14:21;1.90;99.90
37410;DHT22;23275;48.914;12.566;2024-01-07T06:16:47;1.90;99.90
37410;DHT22;23275;48.914;12.566;2024-01-07T06:19:12;1.90;99.90
37410;DHT22;23275;48.914;12.566;2024-01-07T06:21:40;1.90;99.90
37410;DHT22;23275;48.914;12.566;2024-01-07T06:24:07;1.90;99.90
37410;DHT22;23275;48.914;12.566;2024-01-07T06:26:33;1.90;99.90
37410;DHT22;23275;48.914;12.566;2024-01-07T06:28:59;1.80;99.90
37410;DHT22;23275;48.914;12.566;2024-01-07T06:31:25;1.90;99.90
37410;DHT22;23275;48.914;12.566;2024-01-07T06:33:50;1.80;99.90
37410;DHT22;23275;48.914;12.566;2024-01-07T06:36:16;1.80;99.90
37410;DHT22;23275;48.914;12.566;2024-01-07T06:38:42;1.80;99.90
37410;DHT22;23275;48.914;12.566;2024-01-07T06:41:07;1.70;99.90
37410;DHT22;23275;48.914;12.566;2024-01-07T06:43:33;1.70;99.90
37410;DHT22;23275;48.914;12.566;2024-01-07T06:45:58;1.70;99.90
37410;DHT22;23275;48.914;12.566;2024-01-07T06:48:24;1.70;99.90
37410;DHT22;23275;48.914;12.566;2024-01-07T06:50:50;1.60;99.90
37410;DHT22;23275;48.914;12.566;2024-01-07T06:53:16;1.60;99.90
37410;DHT22;23275;48.914;12.566;2024-01-07T06:55:41;1.60;99.90
37410;DHT22;23275;48.914;12.566;2024-01-07T06:58:07;1.60;99.90
37410;DHT22;23275;48.914;12.566;2024-01-07T07:00:33;1.60;99.90
37410;DHT22;23275;48.914;12.566;2024-01-07T07:02:58;1.60;99.90
37410;DHT22;23275;48.914;12.566;2024-01-07T07:05:24;1.60;99.90
37410;DHT22;23275;48.914;12.566;2024-01-07T07:07:49;1.60;99.90
37410;DHT22;23275;48.914;12.566;2024-01-07T07:10:15;1.60;99.90
37410;DHT22;23275;48.914;12.566;2024-01-07T07:12:40;1.60;99.90
37410;DHT22;23275;48.914;12.566;2024-01-07T07:15:06;1.60;99.90
37410;DHT22;23275;48.914;12.566;2024-01-07T07:17:32;1.60;99.90
37410;DHT22;23275;48.914;12.566;2024-01-07T07:19:57;1.60;99.90
37410;DHT22;23275;48.914;12.566;2024-01-07T07:22:23;1.50;99.90
37410;DHT22;23275;48.914;12.566;2024-01-07T07:24:48;1.50;99.90
37410;DHT22;23275;48.914;12.566;2024-01-07T07:27:14;1.50;99.90
37410;DHT22;23275;48.914;12.566;2024-01-07T07:29:39;1.50;99.90
37410;DHT22;23275;48.914;12.566;2024-01-07T07:32:05;1.40;99.90
37410;DHT22;23275;48.914;12.566;2024-01-07T07:34:32;1.50;99.90
37410;DHT22;23275;48.914;12.566;2024-01-07T07:36:58;1.40;99.90
37410;DHT22;23275;48.914;12.566;2024-01-07T07:39:23;1.40;99.90
37410;DHT22;23275;48.914;12.566;2024-01-07T07:41:49;1.40;99.90
37410;DHT22;23275;48.914;12.566;2024-01-07T07:44:14;1.40;99.90
37410;DHT22;23275;48.914;12.566;2024-01-07T07:46:40;1.40;99.90
37410;DHT22;23275;48.914;12.566;2024-01-07T07:49:06;1.40;99.90
37410;DHT22;23275;48.914;12.566;2024-01-07T07:51:31;1.30;99.90
37410;DHT22;23275;48.914;12.566;2024-01-07T07:53:57;1.30;99.90
37410;DHT22;23275;48.914;12.566;2024-01-07T07:56:23;1.30;99.90
37410;DHT22;23275;48.914;12.566;2024-01-07T07:58:48;1.30;99.90
37410;DHT22;23275;48.914;12.566;2024-01-07T08:01:14;1.30;99.90
37410;DHT22;23275;48.914;12.566;2024-01-07T08:03:39;1.40;99.90
37410;DHT22;23275;48.914;12.566;2024-01-07T08:06:05;1.40;99.90
37410;DHT22;23275;48.914;12.566;2024-01-07T08:08:30;1.30;99.90
37410;DHT22;23275;48.914;12.566;2024-01-07T08:10:56;1.30;99.90
37410;DHT22;23275;48.914;12.566;2024-01-07T08:13:22;1.40;99.90
37410;DHT22;23275;48.914;12.566;2024-01-07T08:15:47;1.40;99.90
37410;DHT22;23275;48.914;12.566;2024-01-07T08:18:13;1.40;99.90
37410;DHT22;23275;48.914;12.566;2024-01-07T08:20:39;1.40;99.90
37410;DHT22;23275;48.914;12.566;2024-01-07T08:23:05;1.40;99.90
37410;DHT22;23275;48.914;12.566;2024-01-07T08:25:31;1.40;99.90
37410;DHT22;23275;48.914;12.566;2024-01-07T08:27:57;1.40;99.90
37410;DHT22;23275;48.914;12.566;2024-01-07T08:30:23;1.30;99.90
37410;DHT22;23275;48.914;12.566;2024-01-07T08:32:49;1.40;99.90
37410;DHT22;23275;48.914;12.566;2024-01-07T08:35:14;1.30;99.90
37410;DHT22;23275;48.914;12.566;2024-01-07T08:37:40;1.30;99.90
37410;DHT22;23275;48.914;12.566;2024-01-07T08:40:06;1.30;99.90
37410;DHT22;23275;48.914;12.566;2024-01-07T08:42:35;1.30;99.90
37410;DHT22;23275;48.914;12.566;2024-01-07T08:45:01;1.20;99.90
37410;DHT22;23275;48.914;12.566;2024-01-07T08:47:29;1.20;99.90
37410;DHT22;23275;48.914;12.566;2024-01-07T08:49:56;1.20;99.90
37410;DHT22;23275;48.914;12.566;2024-01-07T08:52:22;1.20;99.90
37410;DHT22;23275;48.914;12.566;2024-01-07T08:54:47;1.10;99.90
37410;DHT22;23275;48.914;12.566;2024-01-07T08:57:13;1.10;99.90
37410;DHT22;23275;48.914;12.566;2024-01-07T08:59:38;1.10;99.90
37410;DHT22;23275;48.914;12.566;2024-01-07T09:02:04;1.00;99.90
37410;DHT22;23275;48.914;12.566;2024-01-07T09:04:30;1.00;99.90
37410;DHT22;23275;48.914;12.566;2024-01-07T09:06:56;1.00;99.90
37410;DHT22;23275;48.914;12.566;2024-01-07T09:09:21;1.00;99.90
37410;DHT22;23275;48.914;12.566;2024-01-07T09:11:47;1.00;99.90
37410;DHT22;23275;48.914;12.566;2024-01-07T09:14:13;1.00;99.90
37410;DHT22;23275;48.914;12.566;2024-01-07T09:16:40;0.90;99.90
37410;DHT22;23275;48.914;12.566;2024-01-07T09:19:05;1.00;99.90
37410;DHT22;23275;48.914;12.566;2024-01-07T09:21:31;0.90;99.90
37410;DHT22;23275;48.914;12.566;2024-01-07T09:23:56;0.90;99.90
37410;DHT22;23275;48.914;12.566;2024-01-07T09:26:22;0.90;99.90
37410;DHT22;23275;48.914;12.566;2024-01-07T09:28:50;0.90;99.90
37410;DHT22;23275;48.914;12.566;2024-01-07T09:31:17;0.90;99.90
37410;DHT22;23275;48.914;12.566;2024-01-07T09:33:43;0.90;99.90
37410;DHT22;23275;48.914;12.566;2024-01-07T09:36:09;0.90;99.90
37410;DHT22;23275;48.914;12.566;2024-01-07T09:38:35;0.90;99.90
37410;DHT22;23275;48.914;12.566;2024-01-07T09:41:01;0.90;99.90
37410;DHT22;23275;48.914;12.566;2024-01-07T09:43:28;0.90;99.90
37410;DHT22;23275;48.914;12.566;2024-01-07T09:45:54;0.90;99.90
37410;DHT22;23275;48.914;12.566;2024-01-07T09:48:20;0.90;99.90
37410;DHT22;23275;48.914;12.566;2024-01-07T09:50:46;0.90;99.90
37410;DHT22;23275;48.914;12.566;2024-01-07T09:53:15;0.80;99.90
37410;DHT22;23275;48.914;12.566;2024-01-07T09:56:09;0.80;99.90
37410;DHT22;23275;48.914;12.566;2024-01-07T09:58:37;0.80;99.90
37410;DHT22;23275;48.914;12.566;2024-01-07T10:01:03;0.80;99.90
37410;DHT22;23275;48.914;12.566;2024-01-07T10:03:30;0.80;99.90
37410;DHT22;23275;48.914;12.566;2024-01-07T10:05:56;0.80;99.90
37410;DHT22;23275;48.914;12.566;2024-01-07T10:08:21;0.80;99.90
37410;DHT22;23275;48.914;12.566;2024-01-07T10:10:48;0.80;99.90
37410;DHT22;23275;48.914;12.566;2024-01-07T10:13:14;0.80;99.90
37410;DHT22;23275;48.914;12.566;2024-01-07T10:15:40;0.80;99.90
37410;DHT22;23275;48.914;12.566;2024-01-07T10:18:06;0.80;99.90
37410;DHT22;23275;48.914;12.566;2024-01-07T10:20:33;0.70;99.90
37410;DHT22;23275;48.914;12.566;2024-01-07T10:23:02;0.70;99.90
37410;DHT22;23275;48.914;12.566;2024-01-07T10:25:30;0.70;99.90
37410;DHT22;23275;48.914;12.566;2024-01-07T10:28:00;0.70;99.90
37410;DHT22;23275;48.914;12.566;2024-01-07T10:30:27;0.70;99.90
37410;DHT22;23275;48.914;12.566;2024-01-07T10:32:59;0.70;99.90
37410;DHT22;23275;48.914;12.566;2024-01-07T10:35:29;0.60;99.90
37410;DHT22;23275;48.914;12.566;2024-01-07T10:37:59;0.60;99.90
37410;DHT22;23275;48.914;12.566;2024-01-07T10:40:26;0.60;99.90
37410;DHT22;23275;48.914;12.566;2024-01-07T10:42:52;0.60;99.90
37410;DHT22;23275;48.914;12.566;2024-01-07T10:45:19;0.50;99.90
37410;DHT22;23275;48.914;12.566;2024-01-07T10:47:48;0.50;99.90
37410;DHT22;23275;48.914;12.566;2024-01-07T10:50:16;0.50;99.90
37410;DHT22;23275;48.914;12.566;2024-01-07T10:52:43;0.50;99.90
37410;DHT22;23275;48.914;12.566;2024-01-07T10:55:13;0.60;99.90
37410;DHT22;23275;48.914;12.566;2024-01-07T10:57:44;0.60;99.90
37410;DHT22;23275;48.914;12.566;2024-01-07T11:00:13;0.60;99.90
37410;DHT22;23275;48.914;12.566;2024-01-07T11:03:16;0.60;99.90
37410;DHT22;23275;48.914;12.566;2024-01-07T11:05:54;0.60;99.90
37410;DHT22;23275;48.914;12.566;2024-01-07T11:08:45;0.50;99.90
37410;DHT22;23275;48.914;12.566;2024-01-07T11:11:27;0.50;99.90
37410;DHT22;23275;48.914;12.566;2024-01-07T11:13:57;0.40;99.90
37410;DHT22;23275;48.914;12.566;2024-01-07T11:16:42;0.50;99.90
37410;DHT22;23275;48.914;12.566;2024-01-07T11:19:08;0.50;99.90
37410;DHT22;23275;48.914;12.566;2024-01-07T11:21:34;0.50;99.90
37410;DHT22;23275;48.914;12.566;2024-01-07T11:24:00;0.50;99.90
37410;DHT22;23275;48.914;12.566;2024-01-07T11:26:28;0.40;99.90
37410;DHT22;23275;48.914;12.566;2024-01-07T11:28:57;0.40;99.90
37410;DHT22;23275;48.914;12.566;2024-01-07T11:34:07;0.50;99.90
37410;DHT22;23275;48.914;12.566;2024-01-07T11:36:35;0.50;99.90
37410;DHT22;23275;48.914;12.566;2024-01-07T11:39:02;0.50;99.90
37410;DHT22;23275;48.914;12.566;2024-01-07T11:41:31;0.40;99.90
37410;DHT22;23275;48.914;12.566;2024-01-07T11:43:59;0.50;99.90
37410;DHT22;23275;48.914;12.566;2024-01-07T11:46:29;0.50;99.90
37410;DHT22;23275;48.914;12.566;2024-01-07T11:48:56;0.50;99.90
37410;DHT22;23275;48.914;12.566;2024-01-07T11:51:26;0.40;99.90
37410;DHT22;23275;48.914;12.566;2024-01-07T11:53:52;0.40;99.90
37410;DHT22;23275;48.914;12.566;2024-01-07T11:56:18;0.40;99.90
37410;DHT22;23275;48.914;12.566;2024-01-07T11:58:44;0.50;99.90
37410;DHT22;23275;48.914;12.566;2024-01-07T12:01:10;0.50;99.90
37410;DHT22;23275;48.914;12.566;2024-01-07T12:03:35;0.50;99.90
37410;DHT22;23275;48.914;12.566;2024-01-07T12:06:01;0.40;99.90
37410;DHT22;23275;48.914;12.566;2024-01-07T12:08:27;0.40;99.90
37410;DHT22;23275;48.914;12.566;2024-01-07T12:10:54;0.40;99.90
37410;DHT22;23275;48.914;12.566;2024-01-07T12:13:20;0.40;99.90
37410;DHT22;23275;48.914;12.566;2024-01-07T12:15:46;0.40;99.90
37410;DHT22;23275;48.914;12.566;2024-01-07T12:18:12;0.40;99.90
37410;DHT22;23275;48.914;12.566;2024-01-07T12:20:37;0.50;99.90
37410;DHT22;23275;48.914;12.566;2024-01-07T12:23:07;0.40;99.90
37410;DHT22;23275;48.914;12.566;2024-01-07T12:25:33;0.40;99.90
37410;DHT22;23275;48.914;12.566;2024-01-07T12:27:59;0.50;99.90
37410;DHT22;23275;48.914;12.566;2024-01-07T12:30:25;0.40;99.90
37410;DHT22;23275;48.914;12.566;2024-01-07T12:32:55;0.40;99.90
37410;DHT22;23275;48.914;12.566;2024-01-07T12:35:20;0.30;99.90
37410;DHT22;23275;48.914;12.566;2024-01-07T12:37:47;0.40;99.90
37410;DHT22;23275;48.914;12.566;2024-01-07T12:40:13;0.30;99.90
37410;DHT22;23275;48.914;12.566;2024-01-07T12:42:39;0.40;99.90
37410;DHT22;23275;48.914;12.566;2024-01-07T12:45:14;0.40;99.90
37410;DHT22;23275;48.914;12.566;2024-01-07T12:47:41;0.40;99.90
37410;DHT22;23275;48.914;12.566;2024-01-07T12:50:08;0.40;99.90
37410;DHT22;23275;48.914;12.566;2024-01-07T12:52:38;0.40;99.90
37410;DHT22;23275;48.914;12.566;2024-01-07T12:55:08;0.40;99.90
37410;DHT22;23275;48.914;12.566;2024-01-07T12:57:34;0.30;99.90
37410;DHT22;23275;48.914;12.566;2024-01-07T12:59:59;0.30;99.90
37410;DHT22;23275;48.914;12.566;2024-01-07T13:02:25;0.30;99.90
37410;DHT22;23275;48.914;12.566;2024-01-07T13:04:51;0.30;99.90
37410;DHT22;23275;48.914;12.566;2024-01-07T13:07:17;0.40;99.90
37410;DHT22;23275;48.914;12.566;2024-01-07T13:09:42;0.30;99.90
37410;DHT22;23275;48.914;12.566;2024-01-07T13:12:10;0.30;99.90
37410;DHT22;23275;48.914;12.566;2024-01-07T13:14:36;0.30;99.90
37410;DHT22;23275;48.914;12.566;2024-01-07T13:17:01;0.20;99.90
37410;DHT22;23275;48.914;12.566;2024-01-07T13:19:27;0.20;99.90
37410;DHT22;23275;48.914;12.566;2024-01-07T13:21:53;0.10;99.90
37410;DHT22;23275;48.914;12.566;2024-01-07T13:24:24;0.10;99.90
37410;DHT22;23275;48.914;12.566;2024-01-07T13:26:50;0.20;99.90
37410;DHT22;23275;48.914;12.566;2024-01-07T13:29:15;0.20;99.90
37410;DHT22;23275;48.914;12.566;2024-01-07T13:31:41;0.20;99.90
37410;DHT22;23275;48.914;12.566;2024-01-07T13:34:07;0.20;99.90
37410;DHT22;23275;48.914;12.566;2024-01-07T13:36:34;0.20;99.90
37410;DHT22;23275;48.914;12.566;2024-01-07T13:38:59;0.20;99.90
37410;DHT22;23275;48.914;12.566;2024-01-07T13:41:25;0.20;99.90
37410;DHT22;23275;48.914;12.566;2024-01-07T13:43:54;0.10;99.90
37410;DHT22;23275;48.914;12.566;2024-01-07T13:46:21;0.10;99.90
37410;DHT22;23275;48.914;12.566;2024-01-07T13:48:48;0.10;99.90
37410;DHT22;23275;48.914;12.566;2024-01-07T13:51:14;0.10;99.90
37410;DHT22;23275;48.914;12.566;2024-01-07T13:53:40;0.00;99.90
37410;DHT22;23275;48.914;12.566;2024-01-07T13:56:06;0.00;99.90
37410;DHT22;23275;48.914;12.566;2024-01-07T13:58:32;0.00;99.90
37410;DHT22;23275;48.914;12.566;2024-01-07T14:00:58;0.00;99.90
37410;DHT22;23275;48.914;12.566;2024-01-07T14:03:23;0.00;99.90
37410;DHT22;23275;48.914;12.566;2024-01-07T14:05:49;0.00;99.90
37410;DHT22;23275;48.914;12.566;2024-01-07T14:08:16;0.00;99.90
37410;DHT22;23275;48.914;12.566;2024-01-07T14:10:42;-0.10;99.90
37410;DHT22;23275;48.914;12.566;2024-01-07T14:13:07;-0.10;99.90
37410;DHT22;23275;48.914;12.566;2024-01-07T14:15:34;-0.10;99.90
37410;DHT22;23275;48.914;12.566;2024-01-07T14:18:00;-0.10;99.90
37410;DHT22;23275;48.914;12.566;2024-01-07T14:20:25;-0.10;99.90
37410;DHT22;23275;48.914;12.566;2024-01-07T14:22:54;-0.10;99.90
37410;DHT22;23275;48.914;12.566;2024-01-07T14:25:19;-0.10;99.90
37410;DHT22;23275;48.914;12.566;2024-01-07T14:27:45;-0.10;99.90
37410;DHT22;23275;48.914;12.566;2024-01-07T14:30:11;-0.10;99.90
37410;DHT22;23275;48.914;12.566;2024-01-07T14:32:39;-0.20;99.90
37410;DHT22;23275;48.914;12.566;2024-01-07T14:35:05;-0.10;99.90
37410;DHT22;23275;48.914;12.566;2024-01-07T14:37:30;-0.10;99.90
37410;DHT22;23275;48.914;12.566;2024-01-07T14:39:56;-0.10;99.90
37410;DHT22;23275;48.914;12.566;2024-01-07T14:42:21;-0.10;99.90
37410;DHT22;23275;48.914;12.566;2024-01-07T14:44:47;-0.10;99.90
37410;DHT22;23275;48.914;12.566;2024-01-07T14:47:12;-0.10;99.90
37410;DHT22;23275;48.914;12.566;2024-01-07T14:49:39;-0.10;99.90
37410;DHT22;23275;48.914;12.566;2024-01-07T14:52:05;-0.10;99.90
37410;DHT22;23275;48.914;12.566;2024-01-07T14:54:30;-0.10;99.90
37410;DHT22;23275;48.914;12.566;2024-01-07T14:56:58;-0.10;99.90
37410;DHT22;23275;48.914;12.566;2024-01-07T14:59:24;-0.20;99.90
37410;DHT22;23275;48.914;12.566;2024-01-07T15:01:49;-0.10;99.90
37410;DHT22;23275;48.914;12.566;2024-01-07T15:04:15;-0.20;99.90
37410;DHT22;23275;48.914;12.566;2024-01-07T15:06:41;-0.20;99.90
37410;DHT22;23275;48.914;12.566;2024-01-07T15:09:07;-0.20;99.90
37410;DHT22;23275;48.914;12.566;2024-01-07T15:11:33;-0.20;99.90
37410;DHT22;23275;48.914;12.566;2024-01-07T15:13:59;-0.20;99.90
37410;DHT22;23275;48.914;12.566;2024-01-07T15:16:25;-0.20;99.90
37410;DHT22;23275;48.914;12.566;2024-01-07T15:18:51;-0.30;99.90
37410;DHT22;23275;48.914;12.566;2024-01-07T15:21:17;-0.30;99.90
37410;DHT22;23275;48.914;12.566;2024-01-07T15:23:42;-0.30;99.90
37410;DHT22;23275;48.914;12.566;2024-01-07T15:26:08;-0.30;99.90
37410;DHT22;23275;48.914;12.566;2024-01-07T15:28:34;-0.40;99.90